Terminal Aerodrome Forecast
Issued by NWS

Home | Current Version | Previous Version | Text Only | Print | Product List | Glossary On
Versions: 1 2 3 4 5 6 7 8 9 10 11 12
000
FTUS42 TJSJ 202344
TAFJPS
TAF
TJPS 202344Z 2100/2124 07005KT P6SM FEW040
     FM211330 14012G20KT P6SM FEW025 SCT050
     FM212200 10009KT P6SM FEW030
      AMD NOT SKED TIL 210300=

USA.gov is the U.S. government's official web portal to all federal, state and local government web resources and services.